sensor_id;sensor_type;location;lat;lon;timestamp;temperature;humidity
43920;DHT22;29578;51.946;5.874;2024-03-25T00:00:10;4.90;91.10
43920;DHT22;29578;51.946;5.874;2024-03-25T00:02:37;4.90;91.00
43920;DHT22;29578;51.946;5.874;2024-03-25T00:05:04;4.90;91.00
43920;DHT22;29578;51.946;5.874;2024-03-25T00:07:31;4.90;91.00
43920;DHT22;29578;51.946;5.874;2024-03-25T00:09:56;4.90;91.00
43920;DHT22;29578;51.946;5.874;2024-03-25T00:12:27;4.90;91.00
43920;DHT22;29578;51.946;5.874;2024-03-25T00:14:53;4.90;91.00
43920;DHT22;29578;51.946;5.874;2024-03-25T00:17:19;4.80;91.00
43920;DHT22;29578;51.946;5.874;2024-03-25T00:19:46;4.80;91.00
43920;DHT22;29578;51.946;5.874;2024-03-25T00:22:17;4.80;91.00
43920;DHT22;29578;51.946;5.874;2024-03-25T00:24:45;4.70;91.00
43920;DHT22;29578;51.946;5.874;2024-03-25T00:27:12;4.70;91.00
43920;DHT22;29578;51.946;5.874;2024-03-25T00:29:38;4.70;91.10
43920;DHT22;29578;51.946;5.874;2024-03-25T00:32:04;4.60;91.10
43920;DHT22;29578;51.946;5.874;2024-03-25T00:34:30;4.60;91.20
43920;DHT22;29578;51.946;5.874;2024-03-25T00:36:59;4.60;91.20
43920;DHT22;29578;51.946;5.874;2024-03-25T00:39:28;4.60;91.20
43920;DHT22;29578;51.946;5.874;2024-03-25T00:41:54;4.50;91.20
43920;DHT22;29578;51.946;5.874;2024-03-25T00:44:23;4.50;91.20
43920;DHT22;29578;51.946;5.874;2024-03-25T00:46:48;4.50;91.30
43920;DHT22;29578;51.946;5.874;2024-03-25T00:49:15;4.50;91.30
43920;DHT22;29578;51.946;5.874;2024-03-25T00:51:40;4.50;91.30
43920;DHT22;29578;51.946;5.874;2024-03-25T00:54:06;4.50;91.30
43920;DHT22;29578;51.946;5.874;2024-03-25T00:56:32;4.50;91.30
43920;DHT22;29578;51.946;5.874;2024-03-25T00:58:59;4.50;91.30
43920;DHT22;29578;51.946;5.874;2024-03-25T01:01:29;4.40;91.30
43920;DHT22;29578;51.946;5.874;2024-03-25T01:03:58;4.40;91.30
43920;DHT22;29578;51.946;5.874;2024-03-25T01:06:24;4.40;91.30
43920;DHT22;29578;51.946;5.874;2024-03-25T01:08:50;4.40;91.30
43920;DHT22;29578;51.946;5.874;2024-03-25T01:11:16;4.30;91.30
43920;DHT22;29578;51.946;5.874;2024-03-25T01:13:42;4.30;91.30
43920;DHT22;29578;51.946;5.874;2024-03-25T01:16:08;4.30;91.30
43920;DHT22;29578;51.946;5.874;2024-03-25T01:18:35;4.30;91.30
43920;DHT22;29578;51.946;5.874;2024-03-25T01:21:01;4.30;91.30
43920;DHT22;29578;51.946;5.874;2024-03-25T01:23:30;4.30;91.30
43920;DHT22;29578;51.946;5.874;2024-03-25T01:25:55;4.20;91.30
43920;DHT22;29578;51.946;5.874;2024-03-25T01:28:23;4.20;91.30
43920;DHT22;29578;51.946;5.874;2024-03-25T01:30:49;4.20;91.40
43920;DHT22;29578;51.946;5.874;2024-03-25T01:33:15;4.20;91.40
43920;DHT22;29578;51.946;5.874;2024-03-25T01:35:43;4.20;91.40
43920;DHT22;29578;51.946;5.874;2024-03-25T01:38:09;4.20;91.40
43920;DHT22;29578;51.946;5.874;2024-03-25T01:40:34;4.10;91.40
43920;DHT22;29578;51.946;5.874;2024-03-25T01:43:04;4.20;91.40
43920;DHT22;29578;51.946;5.874;2024-03-25T01:45:31;4.10;91.40
43920;DHT22;29578;51.946;5.874;2024-03-25T01:47:59;4.20;91.40
43920;DHT22;29578;51.946;5.874;2024-03-25T01:50:26;4.10;91.30
43920;DHT22;29578;51.946;5.874;2024-03-25T01:52:53;4.10;91.30
43920;DHT22;29578;51.946;5.874;2024-03-25T01:55:22;4.10;91.30
43920;DHT22;29578;51.946;5.874;2024-03-25T01:57:49;4.10;91.30
43920;DHT22;29578;51.946;5.874;2024-03-25T02:00:15;4.10;91.30
43920;DHT22;29578;51.946;5.874;2024-03-25T02:02:43;4.10;91.30
43920;DHT22;29578;51.946;5.874;2024-03-25T02:05:11;4.10;91.30
43920;DHT22;29578;51.946;5.874;2024-03-25T02:07:37;4.00;91.30
43920;DHT22;29578;51.946;5.874;2024-03-25T02:10:04;4.00;91.40
43920;DHT22;29578;51.946;5.874;2024-03-25T02:12:31;4.00;91.40
43920;DHT22;29578;51.946;5.874;2024-03-25T02:14:58;4.00;91.50
43920;DHT22;29578;51.946;5.874;2024-03-25T02:17:24;3.90;91.50
43920;DHT22;29578;51.946;5.874;2024-03-25T02:19:51;3.90;91.50
43920;DHT22;29578;51.946;5.874;2024-03-25T02:22:17;3.90;91.50
43920;DHT22;29578;51.946;5.874;2024-03-25T02:24:45;3.90;91.50
43920;DHT22;29578;51.946;5.874;2024-03-25T02:27:12;3.90;91.50
43920;DHT22;29578;51.946;5.874;2024-03-25T02:29:41;3.90;91.50
43920;DHT22;29578;51.946;5.874;2024-03-25T02:32:07;3.90;91.50
43920;DHT22;29578;51.946;5.874;2024-03-25T02:34:37;3.90;91.50
43920;DHT22;29578;51.946;5.874;2024-03-25T02:37:04;3.80;91.50
43920;DHT22;29578;51.946;5.874;2024-03-25T02:39:29;3.80;91.50
43920;DHT22;29578;51.946;5.874;2024-03-25T02:41:56;3.70;91.60
43920;DHT22;29578;51.946;5.874;2024-03-25T02:44:23;3.80;91.60
43920;DHT22;29578;51.946;5.874;2024-03-25T02:46:49;3.80;91.60
43920;DHT22;29578;51.946;5.874;2024-03-25T02:49:15;3.80;91.60
43920;DHT22;29578;51.946;5.874;2024-03-25T02:51:41;3.70;91.60
43920;DHT22;29578;51.946;5.874;2024-03-25T02:54:06;3.80;91.60
43920;DHT22;29578;51.946;5.874;2024-03-25T02:56:34;3.70;91.60
43920;DHT22;29578;51.946;5.874;2024-03-25T02:59:01;3.70;91.60
43920;DHT22;29578;51.946;5.874;2024-03-25T03:01:27;3.70;91.60
43920;DHT22;29578;51.946;5.874;2024-03-25T03:03:53;3.70;91.60
43920;DHT22;29578;51.946;5.874;2024-03-25T03:06:18;3.70;91.60
43920;DHT22;29578;51.946;5.874;2024-03-25T03:08:44;3.70;91.60
43920;DHT22;29578;51.946;5.874;2024-03-25T03:11:11;3.70;91.60
43920;DHT22;29578;51.946;5.874;2024-03-25T03:13:36;3.60;91.60
43920;DHT22;29578;51.946;5.874;2024-03-25T03:16:02;3.60;91.60
43920;DHT22;29578;51.946;5.874;2024-03-25T03:18:28;3.60;91.60
43920;DHT22;29578;51.946;5.874;2024-03-25T03:20:54;3.50;91.60
43920;DHT22;29578;51.946;5.874;2024-03-25T03:23:23;3.50;91.70
43920;DHT22;29578;51.946;5.874;2024-03-25T03:25:48;3.60;91.70
43920;DHT22;29578;51.946;5.874;2024-03-25T03:28:15;3.50;91.70
43920;DHT22;29578;51.946;5.874;2024-03-25T03:30:41;3.50;91.70
43920;DHT22;29578;51.946;5.874;2024-03-25T03:33:07;3.40;91.70
43920;DHT22;29578;51.946;5.874;2024-03-25T03:35:34;3.40;91.70
43920;DHT22;29578;51.946;5.874;2024-03-25T03:37:59;3.40;91.70
43920;DHT22;29578;51.946;5.874;2024-03-25T03:40:25;3.40;92.00
43920;DHT22;29578;51.946;5.874;2024-03-25T03:42:51;3.40;91.70
43920;DHT22;29578;51.946;5.874;2024-03-25T03:45:17;3.40;91.80
43920;DHT22;29578;51.946;5.874;2024-03-25T03:47:43;3.40;91.80
43920;DHT22;29578;51.946;5.874;2024-03-25T03:50:09;3.30;91.80
43920;DHT22;29578;51.946;5.874;2024-03-25T03:52:35;3.30;91.80
43920;DHT22;29578;51.946;5.874;2024-03-25T03:55:01;3.30;91.80
43920;DHT22;29578;51.946;5.874;2024-03-25T03:57:30;3.30;91.80
43920;DHT22;29578;51.946;5.874;2024-03-25T03:59:58;3.40;91.80
43920;DHT22;29578;51.946;5.874;2024-03-25T04:02:25;3.30;91.80
43920;DHT22;29578;51.946;5.874;2024-03-25T04:04:51;3.30;91.80
43920;DHT22;29578;51.946;5.874;2024-03-25T04:07:17;3.20;91.80
43920;DHT22;29578;51.946;5.874;2024-03-25T04:09:43;3.30;91.80
43920;DHT22;29578;51.946;5.874;2024-03-25T04:12:09;3.20;91.80
43920;DHT22;29578;51.946;5.874;2024-03-25T04:14:35;3.20;91.80
43920;DHT22;29578;51.946;5.874;2024-03-25T04:17:01;3.20;91.80
43920;DHT22;29578;51.946;5.874;2024-03-25T04:19:27;3.20;91.80
43920;DHT22;29578;51.946;5.874;2024-03-25T04:21:55;3.20;91.80
43920;DHT22;29578;51.946;5.874;2024-03-25T04:24:20;3.10;91.80
43920;DHT22;29578;51.946;5.874;2024-03-25T04:26:46;3.10;91.80
43920;DHT22;29578;51.946;5.874;2024-03-25T04:29:12;3.10;91.80
43920;DHT22;29578;51.946;5.874;2024-03-25T04:31:38;3.00;91.70
43920;DHT22;29578;51.946;5.874;2024-03-25T04:34:04;3.00;91.80
43920;DHT22;29578;51.946;5.874;2024-03-25T04:36:31;3.00;91.80
43920;DHT22;29578;51.946;5.874;2024-03-25T04:38:56;3.10;91.90
43920;DHT22;29578;51.946;5.874;2024-03-25T04:41:23;3.10;91.80
43920;DHT22;29578;51.946;5.874;2024-03-25T04:43:48;3.10;91.80
43920;DHT22;29578;51.946;5.874;2024-03-25T04:46:14;3.00;91.80
43920;DHT22;29578;51.946;5.874;2024-03-25T04:48:40;3.00;91.80
43920;DHT22;29578;51.946;5.874;2024-03-25T04:51:07;3.10;91.80
43920;DHT22;29578;51.946;5.874;2024-03-25T04:53:34;3.10;91.80
43920;DHT22;29578;51.946;5.874;2024-03-25T04:56:00;3.10;91.70
43920;DHT22;29578;51.946;5.874;2024-03-25T04:58:26;3.10;91.70
43920;DHT22;29578;51.946;5.874;2024-03-25T05:00:52;3.20;91.80
43920;DHT22;29578;51.946;5.874;2024-03-25T05:03:18;3.20;91.70
43920;DHT22;29578;51.946;5.874;2024-03-25T05:05:44;3.20;91.70
43920;DHT22;29578;51.946;5.874;2024-03-25T05:08:09;3.10;91.70
43920;DHT22;29578;51.946;5.874;2024-03-25T05:10:35;3.10;91.60
43920;DHT22;29578;51.946;5.874;2024-03-25T05:13:01;3.20;91.60
43920;DHT22;29578;51.946;5.874;2024-03-25T05:15:27;3.20;91.70
43920;DHT22;29578;51.946;5.874;2024-03-25T05:17:52;3.20;91.70
43920;DHT22;29578;51.946;5.874;2024-03-25T05:20:18;3.20;91.60
43920;DHT22;29578;51.946;5.874;2024-03-25T05:22:44;3.20;91.60
43920;DHT22;29578;51.946;5.874;2024-03-25T05:25:09;3.20;91.60
43920;DHT22;29578;51.946;5.874;2024-03-25T05:27:35;3.20;91.60
43920;DHT22;29578;51.946;5.874;2024-03-25T05:30:01;3.30;91.60
43920;DHT22;29578;51.946;5.874;2024-03-25T05:32:26;3.20;91.60
43920;DHT22;29578;51.946;5.874;2024-03-25T05:34:52;3.30;91.60
43920;DHT22;29578;51.946;5.874;2024-03-25T05:37:18;3.30;91.60
43920;DHT22;29578;51.946;5.874;2024-03-25T05:39:44;3.20;91.60
43920;DHT22;29578;51.946;5.874;2024-03-25T05:42:10;3.30;91.60
43920;DHT22;29578;51.946;5.874;2024-03-25T05:44:36;3.30;91.60
43920;DHT22;29578;51.946;5.874;2024-03-25T05:47:01;3.30;91.60
43920;DHT22;29578;51.946;5.874;2024-03-25T05:49:28;3.20;91.60
43920;DHT22;29578;51.946;5.874;2024-03-25T05:51:53;3.20;91.60
43920;DHT22;29578;51.946;5.874;2024-03-25T05:54:19;3.20;91.70
43920;DHT22;29578;51.946;5.874;2024-03-25T05:56:45;3.20;91.60
43920;DHT22;29578;51.946;5.874;2024-03-25T05:59:10;3.20;91.70
43920;DHT22;29578;51.946;5.874;2024-03-25T06:01:36;3.20;91.70
43920;DHT22;29578;51.946;5.874;2024-03-25T06:04:03;3.20;91.70
43920;DHT22;29578;51.946;5.874;2024-03-25T06:06:29;3.30;91.70
43920;DHT22;29578;51.946;5.874;2024-03-25T06:08:55;3.30;91.70
43920;DHT22;29578;51.946;5.874;2024-03-25T06:11:21;3.30;91.70
43920;DHT22;29578;51.946;5.874;2024-03-25T06:13:47;3.30;91.70
43920;DHT22;29578;51.946;5.874;2024-03-25T06:16:13;3.30;91.70
43920;DHT22;29578;51.946;5.874;2024-03-25T06:18:39;3.30;91.70
43920;DHT22;29578;51.946;5.874;2024-03-25T06:21:06;3.30;91.70
43920;DHT22;29578;51.946;5.874;2024-03-25T06:23:32;3.40;91.70
43920;DHT22;29578;51.946;5.874;2024-03-25T06:25:57;3.40;91.70
43920;DHT22;29578;51.946;5.874;2024-03-25T06:28:23;3.50;91.70
43920;DHT22;29578;51.946;5.874;2024-03-25T06:30:50;3.40;91.60
43920;DHT22;29578;51.946;5.874;2024-03-25T06:33:26;3.50;91.60
43920;DHT22;29578;51.946;5.874;2024-03-25T06:36:06;3.50;91.60
43920;DHT22;29578;51.946;5.874;2024-03-25T06:38:32;3.60;91.90
43920;DHT22;29578;51.946;5.874;2024-03-25T06:40:58;3.60;91.60
43920;DHT22;29578;51.946;5.874;2024-03-25T06:43:24;3.70;91.60
43920;DHT22;29578;51.946;5.874;2024-03-25T06:45:50;3.70;91.50
43920;DHT22;29578;51.946;5.874;2024-03-25T06:48:16;3.80;91.50
43920;DHT22;29578;51.946;5.874;2024-03-25T06:50:41;3.80;91.50
43920;DHT22;29578;51.946;5.874;2024-03-25T06:53:17;3.90;91.50
43920;DHT22;29578;51.946;5.874;2024-03-25T06:55:51;3.90;91.40
43920;DHT22;29578;51.946;5.874;2024-03-25T06:58:17;4.00;91.40
43920;DHT22;29578;51.946;5.874;2024-03-25T07:00:43;4.10;91.40
43920;DHT22;29578;51.946;5.874;2024-03-25T07:03:09;4.10;91.40
43920;DHT22;29578;51.946;5.874;2024-03-25T07:05:35;4.20;91.30
43920;DHT22;29578;51.946;5.874;2024-03-25T07:08:00;4.30;91.20
43920;DHT22;29578;51.946;5.874;2024-03-25T07:10:26;4.30;91.20
43920;DHT22;29578;51.946;5.874;2024-03-25T07:12:52;4.40;91.30
43920;DHT22;29578;51.946;5.874;2024-03-25T07:15:18;4.40;91.20
43920;DHT22;29578;51.946;5.874;2024-03-25T07:17:43;4.50;91.20
43920;DHT22;29578;51.946;5.874;2024-03-25T07:20:10;4.50;91.20
43920;DHT22;29578;51.946;5.874;2024-03-25T07:22:36;4.70;91.10
43920;DHT22;29578;51.946;5.874;2024-03-25T07:25:02;4.80;91.10
43920;DHT22;29578;51.946;5.874;2024-03-25T07:27:28;4.90;91.10
43920;DHT22;29578;51.946;5.874;2024-03-25T07:29:53;4.90;91.00
43920;DHT22;29578;51.946;5.874;2024-03-25T07:32:19;5.00;90.90
43920;DHT22;29578;51.946;5.874;2024-03-25T07:34:48;5.10;90.90
43920;DHT22;29578;51.946;5.874;2024-03-25T07:37:13;5.20;90.80
43920;DHT22;29578;51.946;5.874;2024-03-25T07:39:39;5.20;90.80
43920;DHT22;29578;51.946;5.874;2024-03-25T07:42:05;5.30;90.80
43920;DHT22;29578;51.946;5.874;2024-03-25T07:44:32;5.40;90.80
43920;DHT22;29578;51.946;5.874;2024-03-25T07:46:57;5.50;90.80
43920;DHT22;29578;51.946;5.874;2024-03-25T07:49:23;5.70;90.80
43920;DHT22;29578;51.946;5.874;2024-03-25T07:51:49;5.70;90.70
43920;DHT22;29578;51.946;5.874;2024-03-25T07:54:14;5.80;90.70
43920;DHT22;29578;51.946;5.874;2024-03-25T07:56:42;6.00;90.60
43920;DHT22;29578;51.946;5.874;2024-03-25T07:59:08;6.00;90.60
43920;DHT22;29578;51.946;5.874;2024-03-25T08:01:34;6.10;90.50
43920;DHT22;29578;51.946;5.874;2024-03-25T08:03:59;6.20;90.50
43920;DHT22;29578;51.946;5.874;2024-03-25T08:06:25;6.30;90.50
43920;DHT22;29578;51.946;5.874;2024-03-25T08:08:51;6.40;90.50
43920;DHT22;29578;51.946;5.874;2024-03-25T08:11:16;6.60;90.50
43920;DHT22;29578;51.946;5.874;2024-03-25T08:13:42;6.70;90.40
43920;DHT22;29578;51.946;5.874;2024-03-25T08:16:08;6.80;90.30
43920;DHT22;29578;51.946;5.874;2024-03-25T08:18:33;7.00;90.30
43920;DHT22;29578;51.946;5.874;2024-03-25T08:20:59;7.20;90.30
43920;DHT22;29578;51.946;5.874;2024-03-25T08:23:25;7.30;90.30
43920;DHT22;29578;51.946;5.874;2024-03-25T08:25:50;7.40;90.20
43920;DHT22;29578;51.946;5.874;2024-03-25T08:28:16;7.50;90.20
43920;DHT22;29578;51.946;5.874;2024-03-25T08:30:42;7.70;90.50
43920;DHT22;29578;51.946;5.874;2024-03-25T08:33:08;7.80;90.20
43920;DHT22;29578;51.946;5.874;2024-03-25T08:35:34;8.00;90.10
43920;DHT22;29578;51.946;5.874;2024-03-25T08:37:59;8.10;90.00
43920;DHT22;29578;51.946;5.874;2024-03-25T08:40:25;8.10;90.00
43920;DHT22;29578;51.946;5.874;2024-03-25T08:42:51;8.20;90.00
43920;DHT22;29578;51.946;5.874;2024-03-25T08:45:16;8.30;90.00
43920;DHT22;29578;51.946;5.874;2024-03-25T08:47:42;8.40;90.00
43920;DHT22;29578;51.946;5.874;2024-03-25T08:50:08;8.50;90.00
43920;DHT22;29578;51.946;5.874;2024-03-25T08:52:34;8.60;89.90
43920;DHT22;29578;51.946;5.874;2024-03-25T08:54:59;8.80;89.90
43920;DHT22;29578;51.946;5.874;2024-03-25T08:57:25;8.80;89.70
43920;DHT22;29578;51.946;5.874;2024-03-25T08:59:51;8.80;89.60
43920;DHT22;29578;51.946;5.874;2024-03-25T09:02:16;8.90;89.50
43920;DHT22;29578;51.946;5.874;2024-03-25T09:04:42;8.80;89.50
43920;DHT22;29578;51.946;5.874;2024-03-25T09:07:09;8.90;89.80
43920;DHT22;29578;51.946;5.874;2024-03-25T09:09:35;8.80;90.00
43920;DHT22;29578;51.946;5.874;2024-03-25T09:12:20;8.90;90.00
43920;DHT22;29578;51.946;5.874;2024-03-25T09:14:46;8.90;90.00
43920;DHT22;29578;51.946;5.874;2024-03-25T09:17:11;8.90;89.80
43920;DHT22;29578;51.946;5.874;2024-03-25T09:19:38;8.90;90.00
43920;DHT22;29578;51.946;5.874;2024-03-25T09:22:03;9.00;90.00
43920;DHT22;29578;51.946;5.874;2024-03-25T09:24:29;9.00;89.90
43920;DHT22;29578;51.946;5.874;2024-03-25T09:26:55;9.20;89.70
43920;DHT22;29578;51.946;5.874;2024-03-25T09:29:21;9.10;89.30
43920;DHT22;29578;51.946;5.874;2024-03-25T09:31:46;9.20;89.60
43920;DHT22;29578;51.946;5.874;2024-03-25T09:34:12;9.30;89.70
43920;DHT22;29578;51.946;5.874;2024-03-25T09:36:38;9.30;89.30
43920;DHT22;29578;51.946;5.874;2024-03-25T09:39:03;9.40;89.40
43920;DHT22;29578;51.946;5.874;2024-03-25T09:41:30;9.20;89.10
43920;DHT22;29578;51.946;5.874;2024-03-25T09:44:00;9.30;89.20
43920;DHT22;29578;51.946;5.874;2024-03-25T09:46:26;9.30;89.10
43920;DHT22;29578;51.946;5.874;2024-03-25T09:48:53;9.40;89.20
43920;DHT22;29578;51.946;5.874;2024-03-25T09:51:19;9.30;89.30
43920;DHT22;29578;51.946;5.874;2024-03-25T09:53:45;9.40;89.10
43920;DHT22;29578;51.946;5.874;2024-03-25T09:56:12;9.50;89.10
43920;DHT22;29578;51.946;5.874;2024-03-25T09:58:39;9.60;88.80
43920;DHT22;29578;51.946;5.874;2024-03-25T10:01:05;9.60;88.40
43920;DHT22;29578;51.946;5.874;2024-03-25T10:03:34;9.60;88.40
43920;DHT22;29578;51.946;5.874;2024-03-25T10:06:00;9.70;88.40
43920;DHT22;29578;51.946;5.874;2024-03-25T10:08:25;9.80;88.20
43920;DHT22;29578;51.946;5.874;2024-03-25T10:10:54;9.90;88.00
43920;DHT22;29578;51.946;5.874;2024-03-25T10:13:21;10.00;87.90
43920;DHT22;29578;51.946;5.874;2024-03-25T10:15:48;10.10;87.60
43920;DHT22;29578;51.946;5.874;2024-03-25T10:18:14;10.10;87.50
43920;DHT22;29578;51.946;5.874;2024-03-25T10:20:53;10.20;87.40
43920;DHT22;29578;51.946;5.874;2024-03-25T10:23:21;10.30;87.10
43920;DHT22;29578;51.946;5.874;2024-03-25T10:25:48;10.40;86.90
43920;DHT22;29578;51.946;5.874;2024-03-25T10:28:14;10.20;86.80
43920;DHT22;29578;51.946;5.874;2024-03-25T10:30:40;10.40;87.10
43920;DHT22;29578;51.946;5.874;2024-03-25T10:33:08;10.40;87.10
43920;DHT22;29578;51.946;5.874;2024-03-25T10:35:43;10.50;87.00
43920;DHT22;29578;51.946;5.874;2024-03-25T10:38:11;10.50;86.50
43920;DHT22;29578;51.946;5.874;2024-03-25T10:40:38;10.60;86.40
43920;DHT22;29578;51.946;5.874;2024-03-25T10:43:06;10.60;86.20
43920;DHT22;29578;51.946;5.874;2024-03-25T10:45:34;10.60;86.20
43920;DHT22;29578;51.946;5.874;2024-03-25T10:48:07;10.60;86.10
43920;DHT22;29578;51.946;5.874;2024-03-25T10:50:37;10.70;86.00
43920;DHT22;29578;51.946;5.874;2024-03-25T10:53:04;10.60;86.00
43920;DHT22;29578;51.946;5.874;2024-03-25T10:55:31;10.70;86.20
43920;DHT22;29578;51.946;5.874;2024-03-25T10:58:00;10.80;86.00
43920;DHT22;29578;51.946;5.874;2024-03-25T11:00:26;10.80;85.90
43920;DHT22;29578;51.946;5.874;2024-03-25T11:02:52;10.80;85.70
43920;DHT22;29578;51.946;5.874;2024-03-25T11:05:19;10.80;85.70
43920;DHT22;29578;51.946;5.874;2024-03-25T11:07:44;10.80;85.60
43920;DHT22;29578;51.946;5.874;2024-03-25T11:10:12;10.80;85.70
43920;DHT22;29578;51.946;5.874;2024-03-25T11:12:40;11.00;85.60
43920;DHT22;29578;51.946;5.874;2024-03-25T11:15:07;11.20;85.20
43920;DHT22;29578;51.946;5.874;2024-03-25T11:17:33;11.20;84.90
43920;DHT22;29578;51.946;5.874;2024-03-25T11:20:08;11.30;84.70
43920;DHT22;29578;51.946;5.874;2024-03-25T11:22:35;11.20;84.70
43920;DHT22;29578;51.946;5.874;2024-03-25T11:25:08;11.20;84.70
43920;DHT22;29578;51.946;5.874;2024-03-25T11:27:37;11.20;84.80
43920;DHT22;29578;51.946;5.874;2024-03-25T11:30:04;11.20;84.70
43920;DHT22;29578;51.946;5.874;2024-03-25T11:32:45;11.10;84.70
43920;DHT22;29578;51.946;5.874;2024-03-25T11:35:11;11.10;85.00
43920;DHT22;29578;51.946;5.874;2024-03-25T11:37:41;11.10;84.90
43920;DHT22;29578;51.946;5.874;2024-03-25T11:40:08;11.30;84.80
43920;DHT22;29578;51.946;5.874;2024-03-25T11:42:35;11.50;84.50
43920;DHT22;29578;51.946;5.874;2024-03-25T11:45:03;11.60;84.00
43920;DHT22;29578;51.946;5.874;2024-03-25T11:47:29;11.70;83.60
43920;DHT22;29578;51.946;5.874;2024-03-25T11:49:56;11.70;83.20
43920;DHT22;29578;51.946;5.874;2024-03-25T11:52:21;11.80;83.40
43920;DHT22;29578;51.946;5.874;2024-03-25T11:54:54;11.80;82.90
43920;DHT22;29578;51.946;5.874;2024-03-25T11:57:21;11.70;82.80
43920;DHT22;29578;51.946;5.874;2024-03-25T11:59:47;11.60;83.00
43920;DHT22;29578;51.946;5.874;2024-03-25T12:02:15;11.70;83.40
43920;DHT22;29578;51.946;5.874;2024-03-25T12:04:43;11.80;83.10
43920;DHT22;29578;51.946;5.874;2024-03-25T12:07:11;11.80;82.90
43920;DHT22;29578;51.946;5.874;2024-03-25T12:09:37;11.80;82.90
43920;DHT22;29578;51.946;5.874;2024-03-25T12:12:19;11.70;82.90
43920;DHT22;29578;51.946;5.874;2024-03-25T12:14:45;11.70;83.00
43920;DHT22;29578;51.946;5.874;2024-03-25T12:17:11;11.60;83.10
43920;DHT22;29578;51.946;5.874;2024-03-25T12:19:36;11.50;83.20
43920;DHT22;29578;51.946;5.874;2024-03-25T12:22:02;11.40;83.40
43920;DHT22;29578;51.946;5.874;2024-03-25T12:24:29;11.40;83.60
43920;DHT22;29578;51.946;5.874;2024-03-25T12:26:54;11.60;83.70
43920;DHT22;29578;51.946;5.874;2024-03-25T12:29:20;11.70;83.40
43920;DHT22;29578;51.946;5.874;2024-03-25T12:31:56;12.00;83.10
43920;DHT22;29578;51.946;5.874;2024-03-25T12:34:26;12.20;82.50
43920;DHT22;29578;51.946;5.874;2024-03-25T12:36:51;12.30;82.10
43920;DHT22;29578;51.946;5.874;2024-03-25T12:39:18;12.40;81.40
43920;DHT22;29578;51.946;5.874;2024-03-25T12:41:45;12.40;81.20
43920;DHT22;29578;51.946;5.874;2024-03-25T12:44:12;12.40;81.40
43920;DHT22;29578;51.946;5.874;2024-03-25T12:46:38;12.40;81.30
43920;DHT22;29578;51.946;5.874;2024-03-25T12:49:06;12.50;81.30
43920;DHT22;29578;51.946;5.874;2024-03-25T12:51:32;12.60;81.00
43920;DHT22;29578;51.946;5.874;2024-03-25T12:53:57;12.60;80.90
43920;DHT22;29578;51.946;5.874;2024-03-25T12:56:24;12.80;80.80
43920;DHT22;29578;51.946;5.874;2024-03-25T12:58:50;12.80;80.60
43920;DHT22;29578;51.946;5.874;2024-03-25T13:01:16;12.90;80.40
43920;DHT22;29578;51.946;5.874;2024-03-25T13:03:42;13.00;80.20
43920;DHT22;29578;51.946;5.874;2024-03-25T13:06:08;13.10;79.90
43920;DHT22;29578;51.946;5.874;2024-03-25T13:08:35;13.20;79.60
43920;DHT22;29578;51.946;5.874;2024-03-25T13:11:00;13.10;79.30
43920;DHT22;29578;51.946;5.874;2024-03-25T13:13:26;13.10;79.40
43920;DHT22;29578;51.946;5.874;2024-03-25T13:15:52;13.10;79.30
43920;DHT22;29578;51.946;5.874;2024-03-25T13:18:17;13.10;79.30
43920;DHT22;29578;51.946;5.874;2024-03-25T13:20:44;12.90;79.50
43920;DHT22;29578;51.946;5.874;2024-03-25T13:23:10;12.80;79.80
43920;DHT22;29578;51.946;5.874;2024-03-25T13:25:36;12.70;80.10
43920;DHT22;29578;51.946;5.874;2024-03-25T13:28:02;12.70;80.30
43920;DHT22;29578;51.946;5.874;2024-03-25T13:30:30;12.80;79.90
43920;DHT22;29578;51.946;5.874;2024-03-25T13:32:57;12.80;79.80
43920;DHT22;29578;51.946;5.874;2024-03-25T13:35:22;12.90;79.60
43920;DHT22;29578;51.946;5.874;2024-03-25T13:37:48;12.90;79.40
43920;DHT22;29578;51.946;5.874;2024-03-25T13:40:14;13.10;79.10
43920;DHT22;29578;51.946;5.874;2024-03-25T13:42:40;13.00;78.90
43920;DHT22;29578;51.946;5.874;2024-03-25T13:45:06;13.00;78.80
43920;DHT22;29578;51.946;5.874;2024-03-25T13:47:32;12.90;78.90
43920;DHT22;29578;51.946;5.874;2024-03-25T13:50:02;12.90;79.10
43920;DHT22;29578;51.946;5.874;2024-03-25T13:52:28;12.90;79.30
43920;DHT22;29578;51.946;5.874;2024-03-25T13:54:54;12.90;79.30
43920;DHT22;29578;51.946;5.874;2024-03-25T13:57:20;12.90;79.10
43920;DHT22;29578;51.946;5.874;2024-03-25T13:59:46;12.90;78.70
43920;DHT22;29578;51.946;5.874;2024-03-25T14:02:11;12.90;78.70
43920;DHT22;29578;51.946;5.874;2024-03-25T14:04:37;12.90;78.90
43920;DHT22;29578;51.946;5.874;2024-03-25T14:07:03;12.90;78.90
43920;DHT22;29578;51.946;5.874;2024-03-25T14:09:28;12.80;78.80
43920;DHT22;29578;51.946;5.874;2024-03-25T14:11:54;12.80;78.60
43920;DHT22;29578;51.946;5.874;2024-03-25T14:14:20;12.80;78.60
43920;DHT22;29578;51.946;5.874;2024-03-25T14:16:45;12.90;78.50
43920;DHT22;29578;51.946;5.874;2024-03-25T14:19:11;12.90;78.30
43920;DHT22;29578;51.946;5.874;2024-03-25T14:21:37;13.00;78.20
43920;DHT22;29578;51.946;5.874;2024-03-25T14:24:05;13.00;78.20
43920;DHT22;29578;51.946;5.874;2024-03-25T14:26:31;13.00;78.00
43920;DHT22;29578;51.946;5.874;2024-03-25T14:28:57;13.00;78.00
43920;DHT22;29578;51.946;5.874;2024-03-25T14:31:22;13.00;77.90
43920;DHT22;29578;51.946;5.874;2024-03-25T14:33:48;13.00;78.00
43920;DHT22;29578;51.946;5.874;2024-03-25T14:36:14;13.00;77.90
43920;DHT22;29578;51.946;5.874;2024-03-25T14:38:39;13.10;77.90
43920;DHT22;29578;51.946;5.874;2024-03-25T14:41:05;13.00;77.80
43920;DHT22;29578;51.946;5.874;2024-03-25T14:43:31;13.00;77.70
43920;DHT22;29578;51.946;5.874;2024-03-25T14:45:56;13.00;77.60
43920;DHT22;29578;51.946;5.874;2024-03-25T14:48:22;13.00;77.60
43920;DHT22;29578;51.946;5.874;2024-03-25T14:50:48;13.00;77.50
43920;DHT22;29578;51.946;5.874;2024-03-25T14:53:13;13.00;77.30
43920;DHT22;29578;51.946;5.874;2024-03-25T14:55:41;13.00;77.40
43920;DHT22;29578;51.946;5.874;2024-03-25T14:58:06;12.90;77.40
43920;DHT22;29578;51.946;5.874;2024-03-25T15:00:32;12.70;77.40
43920;DHT22;29578;51.946;5.874;2024-03-25T15:02:58;12.80;77.70
43920;DHT22;29578;51.946;5.874;2024-03-25T15:05:23;12.80;77.70
43920;DHT22;29578;51.946;5.874;2024-03-25T15:07:50;12.80;77.70
43920;DHT22;29578;51.946;5.874;2024-03-25T15:10:15;12.90;77.50
43920;DHT22;29578;51.946;5.874;2024-03-25T15:12:41;12.80;77.30
43920;DHT22;29578;51.946;5.874;2024-03-25T15:15:08;12.90;77.30
43920;DHT22;29578;51.946;5.874;2024-03-25T15:17:36;12.80;77.10
43920;DHT22;29578;51.946;5.874;2024-03-25T15:20:03;12.80;77.10
43920;DHT22;29578;51.946;5.874;2024-03-25T15:22:29;12.90;77.10
43920;DHT22;29578;51.946;5.874;2024-03-25T15:24:55;12.90;76.90
43920;DHT22;29578;51.946;5.874;2024-03-25T15:27:21;12.90;76.80
43920;DHT22;29578;51.946;5.874;2024-03-25T15:29:46;13.00;76.90
43920;DHT22;29578;51.946;5.874;2024-03-25T15:32:12;13.10;76.60
43920;DHT22;29578;51.946;5.874;2024-03-25T15:34:38;13.50;75.90